sensor_id;sensor_type;location;lat;lon;timestamp;P1;durP1;ratioP1;P2;durP2;ratioP2
1328;SDS011;658;48.820;9.354;2023-11-19T00:03:20;0.70;;;0.70;;
1328;SDS011;658;48.820;9.354;2023-11-19T00:07:20;0.67;;;0.67;;
1328;SDS011;658;48.820;9.354;2023-11-19T00:11:21;0.63;;;0.60;;
1328;SDS011;658;48.820;9.354;2023-11-19T00:15:22;0.63;;;0.63;;
1328;SDS011;658;48.820;9.354;2023-11-19T00:19:24;0.60;;;0.60;;
1328;SDS011;658;48.820;9.354;2023-11-19T00:23:24;0.60;;;0.60;;
1328;SDS011;658;48.820;9.354;2023-11-19T00:27:25;0.60;;;0.60;;
1328;SDS011;658;48.820;9.354;2023-11-19T00:31:26;0.83;;;0.70;;
1328;SDS011;658;48.820;9.354;2023-11-19T00:35:27;0.80;;;0.80;;
1328;SDS011;658;48.820;9.354;2023-11-19T00:39:28;0.70;;;0.70;;
1328;SDS011;658;48.820;9.354;2023-11-19T00:43:29;0.70;;;0.70;;
1328;SDS011;658;48.820;9.354;2023-11-19T00:47:29;0.70;;;0.70;;
1328;SDS011;658;48.820;9.354;2023-11-19T00:51:31;0.70;;;0.70;;
1328;SDS011;658;48.820;9.354;2023-11-19T00:55:31;1.43;;;0.53;;
1328;SDS011;658;48.820;9.354;2023-11-19T00:59:32;0.50;;;0.50;;
1328;SDS011;658;48.820;9.354;2023-11-19T01:03:35;0.70;;;0.70;;
1328;SDS011;658;48.820;9.354;2023-11-19T01:07:36;1.10;;;1.00;;
1328;SDS011;658;48.820;9.354;2023-11-19T01:11:36;0.70;;;0.70;;
1328;SDS011;658;48.820;9.354;2023-11-19T01:15:37;4.27;;;1.00;;
1328;SDS011;658;48.820;9.354;2023-11-19T01:19:40;0.50;;;0.50;;
1328;SDS011;658;48.820;9.354;2023-11-19T01:23:43;0.70;;;0.70;;
1328;SDS011;658;48.820;9.354;2023-11-19T01:27:46;0.60;;;0.60;;
1328;SDS011;658;48.820;9.354;2023-11-19T01:31:47;0.60;;;0.60;;
1328;SDS011;658;48.820;9.354;2023-11-19T01:35:51;0.80;;;0.70;;
1328;SDS011;658;48.820;9.354;2023-11-19T01:39:51;0.57;;;0.50;;
1328;SDS011;658;48.820;9.354;2023-11-19T01:43:52;0.80;;;0.80;;
1328;SDS011;658;48.820;9.354;2023-11-19T01:47:54;0.67;;;0.67;;
1328;SDS011;658;48.820;9.354;2023-11-19T01:51:55;0.70;;;0.70;;
1328;SDS011;658;48.820;9.354;2023-11-19T01:55:57;0.50;;;0.50;;
1328;SDS011;658;48.820;9.354;2023-11-19T01:59:58;0.50;;;0.50;;
1328;SDS011;658;48.820;9.354;2023-11-19T02:04:02;0.73;;;0.73;;
1328;SDS011;658;48.820;9.354;2023-11-19T02:08:02;0.67;;;0.67;;
1328;SDS011;658;48.820;9.354;2023-11-19T02:12:03;0.57;;;0.57;;
1328;SDS011;658;48.820;9.354;2023-11-19T02:16:04;0.67;;;0.67;;
1328;SDS011;658;48.820;9.354;2023-11-19T02:20:07;0.70;;;0.70;;
1328;SDS011;658;48.820;9.354;2023-11-19T02:24:09;0.50;;;0.50;;
1328;SDS011;658;48.820;9.354;2023-11-19T02:28:13;0.53;;;0.53;;
1328;SDS011;658;48.820;9.354;2023-11-19T02:32:15;0.60;;;0.60;;
1328;SDS011;658;48.820;9.354;2023-11-19T02:36:18;0.60;;;0.60;;
1328;SDS011;658;48.820;9.354;2023-11-19T02:40:18;0.60;;;0.60;;
1328;SDS011;658;48.820;9.354;2023-11-19T02:44:19;0.93;;;0.63;;
1328;SDS011;658;48.820;9.354;2023-11-19T02:48:19;0.53;;;0.53;;
1328;SDS011;658;48.820;9.354;2023-11-19T02:52:22;0.93;;;0.70;;
1328;SDS011;658;48.820;9.354;2023-11-19T02:56:22;0.50;;;0.50;;
1328;SDS011;658;48.820;9.354;2023-11-19T03:00:26;0.60;;;0.60;;
1328;SDS011;658;48.820;9.354;2023-11-19T03:04:37;0.50;;;0.50;;
1328;SDS011;658;48.820;9.354;2023-11-19T03:08:39;0.60;;;0.60;;
1328;SDS011;658;48.820;9.354;2023-11-19T03:12:40;0.47;;;0.47;;
1328;SDS011;658;48.820;9.354;2023-11-19T03:16:45;0.53;;;0.50;;
1328;SDS011;658;48.820;9.354;2023-11-19T03:20:49;0.70;;;0.70;;
1328;SDS011;658;48.820;9.354;2023-11-19T03:24:53;0.50;;;0.50;;
1328;SDS011;658;48.820;9.354;2023-11-19T03:28:56;0.60;;;0.60;;
1328;SDS011;658;48.820;9.354;2023-11-19T03:32:58;1.73;;;0.77;;
1328;SDS011;658;48.820;9.354;2023-11-19T03:37:02;0.60;;;0.60;;
1328;SDS011;658;48.820;9.354;2023-11-19T03:41:13;0.80;;;0.40;;
1328;SDS011;658;48.820;9.354;2023-11-19T03:45:14;0.50;;;0.50;;
1328;SDS011;658;48.820;9.354;2023-11-19T03:49:15;0.60;;;0.60;;
1328;SDS011;658;48.820;9.354;2023-11-19T03:53:16;0.50;;;0.50;;
1328;SDS011;658;48.820;9.354;2023-11-19T03:57:18;0.40;;;0.40;;
1328;SDS011;658;48.820;9.354;2023-11-19T04:01:19;0.50;;;0.50;;
1328;SDS011;658;48.820;9.354;2023-11-19T04:05:22;0.60;;;0.60;;
1328;SDS011;658;48.820;9.354;2023-11-19T04:09:22;0.50;;;0.50;;
1328;SDS011;658;48.820;9.354;2023-11-19T04:13:23;0.67;;;0.67;;
1328;SDS011;658;48.820;9.354;2023-11-19T04:17:24;0.50;;;0.50;;
1328;SDS011;658;48.820;9.354;2023-11-19T04:21:24;0.50;;;0.50;;
1328;SDS011;658;48.820;9.354;2023-11-19T04:25:27;0.50;;;0.43;;
1328;SDS011;658;48.820;9.354;2023-11-19T04:29:30;0.50;;;0.50;;
1328;SDS011;658;48.820;9.354;2023-11-19T04:33:34;0.50;;;0.50;;
1328;SDS011;658;48.820;9.354;2023-11-19T04:37:35;1.03;;;0.50;;
1328;SDS011;658;48.820;9.354;2023-11-19T04:41:36;0.43;;;0.43;;
1328;SDS011;658;48.820;9.354;2023-11-19T04:45:36;0.43;;;0.43;;
1328;SDS011;658;48.820;9.354;2023-11-19T04:49:41;0.50;;;0.50;;
1328;SDS011;658;48.820;9.354;2023-11-19T04:53:44;0.40;;;0.40;;
1328;SDS011;658;48.820;9.354;2023-11-19T04:57:47;1.90;;;0.60;;
1328;SDS011;658;48.820;9.354;2023-11-19T05:01:48;0.40;;;0.40;;
1328;SDS011;658;48.820;9.354;2023-11-19T05:05:48;0.40;;;0.40;;
1328;SDS011;658;48.820;9.354;2023-11-19T05:09:49;0.50;;;0.40;;
1328;SDS011;658;48.820;9.354;2023-11-19T05:13:50;0.50;;;0.40;;
1328;SDS011;658;48.820;9.354;2023-11-19T05:17:50;0.40;;;0.40;;
1328;SDS011;658;48.820;9.354;2023-11-19T05:21:53;0.70;;;0.60;;
1328;SDS011;658;48.820;9.354;2023-11-19T05:25:54;0.60;;;0.40;;
1328;SDS011;658;48.820;9.354;2023-11-19T05:29:55;0.50;;;0.50;;
1328;SDS011;658;48.820;9.354;2023-11-19T05:33:55;0.60;;;0.50;;
1328;SDS011;658;48.820;9.354;2023-11-19T05:37:56;0.40;;;0.37;;
1328;SDS011;658;48.820;9.354;2023-11-19T05:41:56;0.50;;;0.40;;
1328;SDS011;658;48.820;9.354;2023-11-19T05:45:57;0.50;;;0.50;;
1328;SDS011;658;48.820;9.354;2023-11-19T05:49:57;0.30;;;0.30;;
1328;SDS011;658;48.820;9.354;2023-11-19T05:53:58;0.40;;;0.40;;
1328;SDS011;658;48.820;9.354;2023-11-19T05:57:59;0.50;;;0.50;;
1328;SDS011;658;48.820;9.354;2023-11-19T06:02:00;0.40;;;0.30;;
1328;SDS011;658;48.820;9.354;2023-11-19T06:06:00;0.40;;;0.40;;
1328;SDS011;658;48.820;9.354;2023-11-19T06:10:01;0.40;;;0.40;;
1328;SDS011;658;48.820;9.354;2023-11-19T06:14:02;0.50;;;0.50;;
1328;SDS011;658;48.820;9.354;2023-11-19T06:18:05;0.40;;;0.40;;
1328;SDS011;658;48.820;9.354;2023-11-19T06:22:06;0.40;;;0.40;;
1328;SDS011;658;48.820;9.354;2023-11-19T06:26:06;0.53;;;0.50;;
1328;SDS011;658;48.820;9.354;2023-11-19T06:30:07;0.47;;;0.47;;
1328;SDS011;658;48.820;9.354;2023-11-19T06:34:08;0.40;;;0.30;;
1328;SDS011;658;48.820;9.354;2023-11-19T06:38:09;0.40;;;0.40;;
1328;SDS011;658;48.820;9.354;2023-11-19T06:42:10;0.50;;;0.43;;
1328;SDS011;658;48.820;9.354;2023-11-19T06:46:14;0.43;;;0.40;;
1328;SDS011;658;48.820;9.354;2023-11-19T06:50:16;0.40;;;0.40;;
1328;SDS011;658;48.820;9.354;2023-11-19T06:54:19;0.30;;;0.30;;
1328;SDS011;658;48.820;9.354;2023-11-19T06:58:19;0.40;;;0.40;;
1328;SDS011;658;48.820;9.354;2023-11-19T07:02:20;0.50;;;0.30;;
1328;SDS011;658;48.820;9.354;2023-11-19T07:06:20;1.07;;;0.47;;
1328;SDS011;658;48.820;9.354;2023-11-19T07:10:26;0.40;;;0.40;;
1328;SDS011;658;48.820;9.354;2023-11-19T07:14:26;0.30;;;0.30;;
1328;SDS011;658;48.820;9.354;2023-11-19T07:18:28;0.40;;;0.40;;
1328;SDS011;658;48.820;9.354;2023-11-19T07:22:29;0.40;;;0.40;;
1328;SDS011;658;48.820;9.354;2023-11-19T07:26:32;0.43;;;0.40;;
1328;SDS011;658;48.820;9.354;2023-11-19T07:30:32;0.47;;;0.40;;
1328;SDS011;658;48.820;9.354;2023-11-19T07:34:33;0.33;;;0.33;;
1328;SDS011;658;48.820;9.354;2023-11-19T07:38:34;0.30;;;0.30;;
1328;SDS011;658;48.820;9.354;2023-11-19T07:42:35;0.40;;;0.40;;
1328;SDS011;658;48.820;9.354;2023-11-19T07:46:36;0.30;;;0.30;;
1328;SDS011;658;48.820;9.354;2023-11-19T07:50:37;0.30;;;0.30;;
1328;SDS011;658;48.820;9.354;2023-11-19T07:54:38;0.33;;;0.33;;
1328;SDS011;658;48.820;9.354;2023-11-19T07:58:38;0.30;;;0.30;;
1328;SDS011;658;48.820;9.354;2023-11-19T08:02:39;0.30;;;0.30;;
1328;SDS011;658;48.820;9.354;2023-11-19T08:06:42;0.30;;;0.30;;
1328;SDS011;658;48.820;9.354;2023-11-19T08:10:42;0.50;;;0.33;;
1328;SDS011;658;48.820;9.354;2023-11-19T08:14:44;0.40;;;0.30;;
1328;SDS011;658;48.820;9.354;2023-11-19T08:18:45;0.40;;;0.40;;
1328;SDS011;658;48.820;9.354;2023-11-19T08:22:45;0.30;;;0.30;;
1328;SDS011;658;48.820;9.354;2023-11-19T08:26:46;0.50;;;0.50;;
1328;SDS011;658;48.820;9.354;2023-11-19T08:30:46;0.50;;;0.40;;
1328;SDS011;658;48.820;9.354;2023-11-19T08:34:47;0.30;;;0.30;;
1328;SDS011;658;48.820;9.354;2023-11-19T08:38:47;0.40;;;0.40;;
1328;SDS011;658;48.820;9.354;2023-11-19T08:42:48;0.30;;;0.30;;
1328;SDS011;658;48.820;9.354;2023-11-19T08:46:49;0.50;;;0.30;;
1328;SDS011;658;48.820;9.354;2023-11-19T08:50:50;0.37;;;0.37;;
1328;SDS011;658;48.820;9.354;2023-11-19T08:54:50;0.30;;;0.30;;
1328;SDS011;658;48.820;9.354;2023-11-19T08:58:55;0.47;;;0.30;;
1328;SDS011;658;48.820;9.354;2023-11-19T09:02:56;0.40;;;0.30;;
1328;SDS011;658;48.820;9.354;2023-11-19T09:06:58;0.40;;;0.30;;
1328;SDS011;658;48.820;9.354;2023-11-19T09:10:59;0.40;;;0.30;;
1328;SDS011;658;48.820;9.354;2023-11-19T09:14:59;0.40;;;0.40;;
1328;SDS011;658;48.820;9.354;2023-11-19T09:19:00;0.47;;;0.40;;
1328;SDS011;658;48.820;9.354;2023-11-19T09:23:04;0.30;;;0.30;;
1328;SDS011;658;48.820;9.354;2023-11-19T09:27:05;0.30;;;0.30;;
1328;SDS011;658;48.820;9.354;2023-11-19T09:31:13;0.30;;;0.30;;
1328;SDS011;658;48.820;9.354;2023-11-19T09:35:16;0.40;;;0.40;;
1328;SDS011;658;48.820;9.354;2023-11-19T09:39:17;0.30;;;0.30;;
1328;SDS011;658;48.820;9.354;2023-11-19T09:43:18;0.33;;;0.33;;
1328;SDS011;658;48.820;9.354;2023-11-19T09:47:18;0.40;;;0.30;;
1328;SDS011;658;48.820;9.354;2023-11-19T09:51:20;1.27;;;0.30;;
1328;SDS011;658;48.820;9.354;2023-11-19T09:55:24;0.90;;;0.40;;
1328;SDS011;658;48.820;9.354;2023-11-19T09:59:25;0.70;;;0.37;;
1328;SDS011;658;48.820;9.354;2023-11-19T10:03:26;0.87;;;0.30;;
1328;SDS011;658;48.820;9.354;2023-11-19T10:07:28;0.40;;;0.40;;
1328;SDS011;658;48.820;9.354;2023-11-19T10:11:31;0.33;;;0.30;;
1328;SDS011;658;48.820;9.354;2023-11-19T10:15:33;0.40;;;0.30;;
1328;SDS011;658;48.820;9.354;2023-11-19T10:19:39;0.60;;;0.30;;
1328;SDS011;658;48.820;9.354;2023-11-19T10:23:51;0.40;;;0.30;;
1328;SDS011;658;48.820;9.354;2023-11-19T10:27:54;0.60;;;0.40;;
1328;SDS011;658;48.820;9.354;2023-11-19T10:31:56;2.20;;;0.60;;
1328;SDS011;658;48.820;9.354;2023-11-19T10:35:57;1.70;;;0.80;;
1328;SDS011;658;48.820;9.354;2023-11-19T10:39:58;3.13;;;0.73;;
1328;SDS011;658;48.820;9.354;2023-11-19T10:43:59;0.83;;;0.50;;
1328;SDS011;658;48.820;9.354;2023-11-19T10:48:02;1.10;;;0.60;;
1328;SDS011;658;48.820;9.354;2023-11-19T10:52:08;1.20;;;0.70;;
1328;SDS011;658;48.820;9.354;2023-11-19T10:56:10;0.77;;;0.50;;
1328;SDS011;658;48.820;9.354;2023-11-19T11:00:19;1.77;;;0.60;;
1328;SDS011;658;48.820;9.354;2023-11-19T11:04:25;1.43;;;0.40;;
1328;SDS011;658;48.820;9.354;2023-11-19T11:08:28;1.50;;;0.60;;
1328;SDS011;658;48.820;9.354;2023-11-19T11:12:30;0.40;;;0.40;;
1328;SDS011;658;48.820;9.354;2023-11-19T11:16:35;1.57;;;0.60;;
1328;SDS011;658;48.820;9.354;2023-11-19T11:20:40;0.40;;;0.37;;
1328;SDS011;658;48.820;9.354;2023-11-19T11:24:52;0.50;;;0.50;;
1328;SDS011;658;48.820;9.354;2023-11-19T11:29:20;0.80;;;0.47;;
1328;SDS011;658;48.820;9.354;2023-11-19T11:33:39;2.97;;;0.60;;
1328;SDS011;658;48.820;9.354;2023-11-19T11:37:49;1.97;;;0.70;;
1328;SDS011;658;48.820;9.354;2023-11-19T11:50:47;0.97;;;0.50;;
1328;SDS011;658;48.820;9.354;2023-11-19T11:54:52;1.30;;;0.50;;
1328;SDS011;658;48.820;9.354;2023-11-19T11:58:52;2.20;;;0.80;;
1328;SDS011;658;48.820;9.354;2023-11-19T12:03:01;0.90;;;0.40;;
1328;SDS011;658;48.820;9.354;2023-11-19T12:07:04;1.50;;;0.60;;
1328;SDS011;658;48.820;9.354;2023-11-19T12:11:16;0.70;;;0.50;;
1328;SDS011;658;48.820;9.354;2023-11-19T12:15:17;1.00;;;0.90;;
1328;SDS011;658;48.820;9.354;2023-11-19T12:19:19;2.20;;;0.80;;
1328;SDS011;658;48.820;9.354;2023-11-19T12:23:20;0.50;;;0.43;;
1328;SDS011;658;48.820;9.354;2023-11-19T12:27:21;0.53;;;0.50;;
1328;SDS011;658;48.820;9.354;2023-11-19T12:31:22;0.77;;;0.60;;
1328;SDS011;658;48.820;9.354;2023-11-19T12:35:23;0.80;;;0.80;;
1328;SDS011;658;48.820;9.354;2023-11-19T12:39:24;1.33;;;0.80;;
1328;SDS011;658;48.820;9.354;2023-11-19T12:43:25;2.20;;;1.03;;
1328;SDS011;658;48.820;9.354;2023-11-19T12:47:25;3.10;;;1.60;;
1328;SDS011;658;48.820;9.354;2023-11-19T12:51:32;2.13;;;1.83;;
1328;SDS011;658;48.820;9.354;2023-11-19T12:55:33;3.00;;;1.40;;
1328;SDS011;658;48.820;9.354;2023-11-19T12:59:34;1.37;;;1.27;;
1328;SDS011;658;48.820;9.354;2023-11-19T13:03:35;2.27;;;1.17;;
1328;SDS011;658;48.820;9.354;2023-11-19T13:07:38;1.77;;;1.10;;
1328;SDS011;658;48.820;9.354;2023-11-19T13:11:39;2.03;;;1.20;;
1328;SDS011;658;48.820;9.354;2023-11-19T13:15:43;5.40;;;1.80;;
1328;SDS011;658;48.820;9.354;2023-11-19T13:19:46;5.60;;;1.40;;
1328;SDS011;658;48.820;9.354;2023-11-19T13:23:48;1.73;;;1.33;;
1328;SDS011;658;48.820;9.354;2023-11-19T13:27:48;1.83;;;1.20;;
1328;SDS011;658;48.820;9.354;2023-11-19T13:31:51;3.13;;;1.80;;
1328;SDS011;658;48.820;9.354;2023-11-19T13:35:54;1.83;;;0.90;;
1328;SDS011;658;48.820;9.354;2023-11-19T13:39:55;1.27;;;1.00;;
1328;SDS011;658;48.820;9.354;2023-11-19T13:43:56;3.13;;;1.27;;
1328;SDS011;658;48.820;9.354;2023-11-19T13:47:56;2.10;;;1.20;;
1328;SDS011;658;48.820;9.354;2023-11-19T13:51:57;6.13;;;1.50;;
1328;SDS011;658;48.820;9.354;2023-11-19T13:55:57;1.43;;;0.97;;
1328;SDS011;658;48.820;9.354;2023-11-19T13:59:58;3.20;;;1.50;;
1328;SDS011;658;48.820;9.354;2023-11-19T14:04:03;2.13;;;1.00;;
1328;SDS011;658;48.820;9.354;2023-11-19T14:08:04;2.73;;;1.30;;
1328;SDS011;658;48.820;9.354;2023-11-19T14:12:14;1.20;;;1.00;;
1328;SDS011;658;48.820;9.354;2023-11-19T14:16:17;2.80;;;1.20;;
1328;SDS011;658;48.820;9.354;2023-11-19T14:20:18;1.50;;;0.90;;
1328;SDS011;658;48.820;9.354;2023-11-19T14:24:19;1.00;;;0.90;;
1328;SDS011;658;48.820;9.354;2023-11-19T14:28:19;1.43;;;0.83;;
1328;SDS011;658;48.820;9.354;2023-11-19T14:32:20;2.57;;;1.20;;
1328;SDS011;658;48.820;9.354;2023-11-19T14:36:20;1.43;;;0.70;;
1328;SDS011;658;48.820;9.354;2023-11-19T14:40:21;1.80;;;0.90;;
1328;SDS011;658;48.820;9.354;2023-11-19T14:44:22;1.60;;;0.90;;
1328;SDS011;658;48.820;9.354;2023-11-19T14:48:23;1.50;;;0.80;;
1328;SDS011;658;48.820;9.354;2023-11-19T14:52:26;0.77;;;0.70;;
1328;SDS011;658;48.820;9.354;2023-11-19T14:56:27;1.40;;;1.03;;
1328;SDS011;658;48.820;9.354;2023-11-19T15:00:30;0.83;;;0.80;;
1328;SDS011;658;48.820;9.354;2023-11-19T15:04:30;0.70;;;0.70;;
1328;SDS011;658;48.820;9.354;2023-11-19T15:08:34;1.20;;;0.70;;
1328;SDS011;658;48.820;9.354;2023-11-19T15:12:35;0.83;;;0.63;;
1328;SDS011;658;48.820;9.354;2023-11-19T15:16:40;0.80;;;0.80;;
1328;SDS011;658;48.820;9.354;2023-11-19T15:20:41;1.27;;;0.70;;
1328;SDS011;658;48.820;9.354;2023-11-19T15:24:41;1.20;;;0.70;;
1328;SDS011;658;48.820;9.354;2023-11-19T15:28:42;2.20;;;0.87;;
1328;SDS011;658;48.820;9.354;2023-11-19T15:32:43;1.40;;;0.70;;
1328;SDS011;658;48.820;9.354;2023-11-19T15:36:43;1.33;;;0.60;;
1328;SDS011;658;48.820;9.354;2023-11-19T15:40:46;0.80;;;0.60;;
1328;SDS011;658;48.820;9.354;2023-11-19T15:44:47;0.80;;;0.80;;
1328;SDS011;658;48.820;9.354;2023-11-19T15:48:47;3.07;;;1.00;;
1328;SDS011;658;48.820;9.354;2023-11-19T15:52:48;0.80;;;0.60;;
1328;SDS011;658;48.820;9.354;2023-11-19T15:56:51;1.10;;;0.93;;
1328;SDS011;658;48.820;9.354;2023-11-19T16:00:54;2.80;;;0.70;;
1328;SDS011;658;48.820;9.354;2023-11-19T16:04:57;3.77;;;1.23;;
1328;SDS011;658;48.820;9.354;2023-11-19T16:08:57;2.27;;;1.00;;
1328;SDS011;658;48.820;9.354;2023-11-19T16:13:03;1.83;;;0.80;;
1328;SDS011;658;48.820;9.354;2023-11-19T16:17:06;1.30;;;1.00;;
1328;SDS011;658;48.820;9.354;2023-11-19T16:21:09;0.90;;;0.80;;
1328;SDS011;658;48.820;9.354;2023-11-19T16:25:10;1.67;;;1.00;;
1328;SDS011;658;48.820;9.354;2023-11-19T16:29:12;1.10;;;0.80;;
1328;SDS011;658;48.820;9.354;2023-11-19T16:33:13;1.10;;;1.00;;
1328;SDS011;658;48.820;9.354;2023-11-19T16:37:14;0.97;;;0.67;;
1328;SDS011;658;48.820;9.354;2023-11-19T16:41:19;0.90;;;0.80;;
1328;SDS011;658;48.820;9.354;2023-11-19T16:45:23;0.80;;;0.70;;
1328;SDS011;658;48.820;9.354;2023-11-19T16:49:26;1.10;;;1.00;;
1328;SDS011;658;48.820;9.354;2023-11-19T16:53:29;2.67;;;0.90;;
1328;SDS011;658;48.820;9.354;2023-11-19T16:57:29;1.73;;;1.00;;
1328;SDS011;658;48.820;9.354;2023-11-19T17:01:31;1.17;;;0.73;;
1328;SDS011;658;48.820;9.354;2023-11-19T17:05:31;0.70;;;0.70;;
1328;SDS011;658;48.820;9.354;2023-11-19T17:09:35;1.00;;;0.70;;
1328;SDS011;658;48.820;9.354;2023-11-19T17:13:36;0.73;;;0.60;;
1328;SDS011;658;48.820;9.354;2023-11-19T17:17:37;0.80;;;0.80;;
1328;SDS011;658;48.820;9.354;2023-11-19T17:21:37;0.70;;;0.70;;
1328;SDS011;658;48.820;9.354;2023-11-19T17:25:38;0.80;;;0.60;;
1328;SDS011;658;48.820;9.354;2023-11-19T17:29:39;2.23;;;1.00;;
1328;SDS011;658;48.820;9.354;2023-11-19T17:33:40;1.30;;;0.80;;
1328;SDS011;658;48.820;9.354;2023-11-19T17:37:43;0.87;;;0.63;;
1328;SDS011;658;48.820;9.354;2023-11-19T17:41:43;1.23;;;0.63;;
1328;SDS011;658;48.820;9.354;2023-11-19T17:45:44;3.00;;;1.00;;
1328;SDS011;658;48.820;9.354;2023-11-19T17:49:44;0.80;;;0.80;;
1328;SDS011;658;48.820;9.354;2023-11-19T17:53:45;0.80;;;0.80;;
1328;SDS011;658;48.820;9.354;2023-11-19T17:57:46;1.20;;;0.90;;
1328;SDS011;658;48.820;9.354;2023-11-19T18:01:47;1.00;;;0.90;;
1328;SDS011;658;48.820;9.354;2023-11-19T18:05:48;1.23;;;0.60;;
1328;SDS011;658;48.820;9.354;2023-11-19T18:09:48;1.13;;;0.70;;
1328;SDS011;658;48.820;9.354;2023-11-19T18:13:49;1.50;;;0.80;;
1328;SDS011;658;48.820;9.354;2023-11-19T18:17:50;0.60;;;0.60;;
1328;SDS011;658;48.820;9.354;2023-11-19T18:21:50;0.60;;;0.60;;
1328;SDS011;658;48.820;9.354;2023-11-19T18:25:51;0.80;;;0.70;;
1328;SDS011;658;48.820;9.354;2023-11-19T18:29:52;1.17;;;0.60;;
1328;SDS011;658;48.820;9.354;2023-11-19T18:33:53;0.97;;;0.53;;
1328;SDS011;658;48.820;9.354;2023-11-19T18:37:54;0.70;;;0.70;;
1328;SDS011;658;48.820;9.354;2023-11-19T18:41:54;0.80;;;0.70;;
1328;SDS011;658;48.820;9.354;2023-11-19T18:45:57;1.27;;;0.90;;
1328;SDS011;658;48.820;9.354;2023-11-19T18:50:01;1.20;;;0.80;;
1328;SDS011;658;48.820;9.354;2023-11-19T18:54:02;0.87;;;0.83;;
1328;SDS011;658;48.820;9.354;2023-11-19T18:58:03;0.97;;;0.87;;
1328;SDS011;658;48.820;9.354;2023-11-19T19:02:04;0.70;;;0.70;;
1328;SDS011;658;48.820;9.354;2023-11-19T19:06:06;0.60;;;0.60;;
1328;SDS011;658;48.820;9.354;2023-11-19T19:10:07;0.63;;;0.63;;
1328;SDS011;658;48.820;9.354;2023-11-19T19:14:09;0.97;;;0.70;;
1328;SDS011;658;48.820;9.354;2023-11-19T19:18:09;1.10;;;0.80;;
1328;SDS011;658;48.820;9.354;2023-11-19T19:22:10;0.70;;;0.70;;
1328;SDS011;658;48.820;9.354;2023-11-19T19:26:11;0.73;;;0.73;;
1328;SDS011;658;48.820;9.354;2023-11-19T19:30:12;1.57;;;1.00;;
1328;SDS011;658;48.820;9.354;2023-11-19T19:34:14;1.30;;;0.70;;
1328;SDS011;658;48.820;9.354;2023-11-19T19:38:15;0.87;;;0.87;;
1328;SDS011;658;48.820;9.354;2023-11-19T19:42:15;1.00;;;0.77;;
1328;SDS011;658;48.820;9.354;2023-11-19T19:46:16;0.80;;;0.73;;
1328;SDS011;658;48.820;9.354;2023-11-19T19:50:17;0.70;;;0.60;;
1328;SDS011;658;48.820;9.354;2023-11-19T19:54:18;0.67;;;0.67;;
1328;SDS011;658;48.820;9.354;2023-11-19T19:58:19;0.87;;;0.60;;
1328;SDS011;658;48.820;9.354;2023-11-19T20:02:20;1.63;;;0.70;;
1328;SDS011;658;48.820;9.354;2023-11-19T20:06:23;1.07;;;0.97;;
1328;SDS011;658;48.820;9.354;2023-11-19T20:10:24;1.33;;;0.70;;
1328;SDS011;658;48.820;9.354;2023-11-19T20:14:26;1.10;;;0.60;;
1328;SDS011;658;48.820;9.354;2023-11-19T20:18:27;1.10;;;0.67;;
1328;SDS011;658;48.820;9.354;2023-11-19T20:22:31;1.07;;;0.53;;
1328;SDS011;658;48.820;9.354;2023-11-19T20:26:31;1.50;;;1.00;;
1328;SDS011;658;48.820;9.354;2023-11-19T20:30:32;0.60;;;0.60;;
1328;SDS011;658;48.820;9.354;2023-11-19T20:34:33;1.23;;;0.80;;
1328;SDS011;658;48.820;9.354;2023-11-19T20:38:36;0.60;;;0.60;;
1328;SDS011;658;48.820;9.354;2023-11-19T20:42:39;1.10;;;0.90;;
1328;SDS011;658;48.820;9.354;2023-11-19T20:46:40;0.70;;;0.70;;
1328;SDS011;658;48.820;9.354;2023-11-19T20:50:41;0.87;;;0.70;;
1328;SDS011;658;48.820;9.354;2023-11-19T20:54:42;1.10;;;0.93;;
1328;SDS011;658;48.820;9.354;2023-11-19T20:58:42;1.00;;;0.90;;
1328;SDS011;658;48.820;9.354;2023-11-19T21:02:43;0.90;;;0.90;;
1328;SDS011;658;48.820;9.354;2023-11-19T21:06:44;0.80;;;0.70;;
1328;SDS011;658;48.820;9.354;2023-11-19T21:10:45;0.80;;;0.77;;
1328;SDS011;658;48.820;9.354;2023-11-19T21:14:46;0.70;;;0.70;;
1328;SDS011;658;48.820;9.354;2023-11-19T21:18:47;0.60;;;0.60;;
1328;SDS011;658;48.820;9.354;2023-11-19T21:22:47;1.70;;;0.90;;
1328;SDS011;658;48.820;9.354;2023-11-19T21:26:48;0.70;;;0.67;;
1328;SDS011;658;48.820;9.354;2023-11-19T21:30:49;0.77;;;0.70;;
1328;SDS011;658;48.820;9.354;2023-11-19T21:34:49;0.97;;;0.70;;
1328;SDS011;658;48.820;9.354;2023-11-19T21:38:50;1.27;;;0.70;;
1328;SDS011;658;48.820;9.354;2023-11-19T21:42:51;0.70;;;0.70;;
1328;SDS011;658;48.820;9.354;2023-11-19T21:46:52;0.80;;;0.60;;
1328;SDS011;658;48.820;9.354;2023-11-19T21:50:52;1.17;;;1.07;;
1328;SDS011;658;48.820;9.354;2023-11-19T21:54:56;0.87;;;0.77;;
1328;SDS011;658;48.820;9.354;2023-11-19T21:58:56;0.73;;;0.70;;
1328;SDS011;658;48.820;9.354;2023-11-19T22:02:57;1.67;;;1.07;;
1328;SDS011;658;48.820;9.354;2023-11-19T22:06:57;1.43;;;0.90;;
1328;SDS011;658;48.820;9.354;2023-11-19T22:11:00;1.20;;;0.90;;
1328;SDS011;658;48.820;9.354;2023-11-19T22:15:01;0.60;;;0.60;;
1328;SDS011;658;48.820;9.354;2023-11-19T22:19:02;0.90;;;0.63;;
1328;SDS011;658;48.820;9.354;2023-11-19T22:23:03;0.90;;;0.70;;
1328;SDS011;658;48.820;9.354;2023-11-19T22:27:04;0.77;;;0.77;;
1328;SDS011;658;48.820;9.354;2023-11-19T22:31:08;1.33;;;0.90;;
1328;SDS011;658;48.820;9.354;2023-11-19T22:35:12;0.70;;;0.60;;
1328;SDS011;658;48.820;9.354;2023-11-19T22:39:15;0.90;;;0.50;;
1328;SDS011;658;48.820;9.354;2023-11-19T22:43:16;0.80;;;0.60;;
1328;SDS011;658;48.820;9.354;2023-11-19T22:47:16;0.70;;;0.70;;
1328;SDS011;658;48.820;9.354;2023-11-19T22:51:17;0.70;;;0.70;;
1328;SDS011;658;48.820;9.354;2023-11-19T22:55:18;0.60;;;0.60;;
1328;SDS011;658;48.820;9.354;2023-11-19T22:59:18;1.00;;;0.87;;
1328;SDS011;658;48.820;9.354;2023-11-19T23:03:20;1.47;;;0.90;;
1328;SDS011;658;48.820;9.354;2023-11-19T23:07:21;1.17;;;0.70;;
1328;SDS011;658;48.820;9.354;2023-11-19T23:11:21;0.73;;;0.73;;
1328;SDS011;658;48.820;9.354;2023-11-19T23:15:22;0.80;;;0.80;;
1328;SDS011;658;48.820;9.354;2023-11-19T23:19:25;1.27;;;0.70;;
1328;SDS011;658;48.820;9.354;2023-11-19T23:23:25;0.80;;;0.60;;
1328;SDS011;658;48.820;9.354;2023-11-19T23:27:26;3.37;;;0.60;;
1328;SDS011;658;48.820;9.354;2023-11-19T23:31:27;0.90;;;0.70;;
1328;SDS011;658;48.820;9.354;2023-11-19T23:35:27;1.77;;;0.63;;
1328;SDS011;658;48.820;9.354;2023-11-19T23:39:28;1.27;;;0.60;;
1328;SDS011;658;48.820;9.354;2023-11-19T23:43:31;0.67;;;0.57;;
1328;SDS011;658;48.820;9.354;2023-11-19T23:47:32;1.10;;;0.80;;
1328;SDS011;658;48.820;9.354;2023-11-19T23:51:36;0.67;;;0.60;;
1328;SDS011;658;48.820;9.354;2023-11-19T23:55:37;0.70;;;0.70;;
1328;SDS011;658;48.820;9.354;2023-11-19T23:59:40;1.77;;;0.60;;
